Hovedside
METAR-TAF:

METAR-TAF

Lufthavner :

Houari Boumedienne lufthavn

Alger, Algerie

breddegrad: 36-43N, lengdegrad: 003-15E, høyde over havet: 25 m

Gjeldene værobservasjon

Denne rapporten ble laget for 31 minutter siden, klokken 14:30 UTC
Vind 7 kt fra Øst-nordøst, skiftende mellom Nord-nordøst og Øst
Temperatur 17°C
Luftfuktighet 63%
Trykk 1020 hPa
Sikt: 8000 m
Få skyer i en høyde av 3300 ft

METAR: DAAG 231430Z 06007KT 030V090 8000 FEW033 17/10 Q1020

Tid: 16:01 (15:01 UTC)

Varsel

Denne rapporten ble laget for 4 timer og 1 minutter siden, klokken 11:00 UTC
Varsel gyldig fra 23. klokken 12 UTC til 24. klokken 12 UTC
Vind 10 kt fra Øst-nordøst
Sikt 10 km eller mer
ingen skyer under 1500 m og ingen bygeskyer
Blir
fra 23. klokken 19 UTC til 23. klokken 21 UTC
Vind 2 kt fra skiftende retning

TAF: DAAG 231100Z 2312/2412 06010KT CAVOK BECMG 2319/2321 VRB02KT

Værobservasjoner og værvarsel for over 4000 flyplasser (METAR- og TAF-rapporter).

Tilgjengelige stasjoner er representert av de røde og gule prikkene på kartet.

Hold musepekeren over prikken for å se navnet på stasjonen.

Klikk så for å se værobservasjoner og -varsler.

For å forandre kartet kan du klikke på den grønne knappen med svart kryss for å zoome inn, på den grønne knappen med strek for å zoome ut, eller på de grønne pilene for å se tilstøtende kart.


METAR-TAF: